createdAt,value
2023-05-11T00:00:36.451Z,16.52
2023-05-11T00:03:03.052Z,16.58
2023-05-11T00:05:29.889Z,16.55
2023-05-11T00:07:56.392Z,16.55
2023-05-11T00:10:22.922Z,16.50
2023-05-11T00:12:49.467Z,16.55
2023-05-11T00:15:16.048Z,16.62
2023-05-11T00:17:42.729Z,16.63
2023-05-11T00:20:09.767Z,16.68
2023-05-11T00:22:36.291Z,16.73
2023-05-11T00:25:03.009Z,16.73
2023-05-11T00:27:29.461Z,16.76
2023-05-11T00:29:55.934Z,16.64
2023-05-11T00:32:22.516Z,16.65
2023-05-11T00:34:49.012Z,16.67
2023-05-11T00:37:15.500Z,16.68
2023-05-11T00:39:41.946Z,16.67
2023-05-11T00:42:08.437Z,16.63
2023-05-11T00:44:34.913Z,16.63
2023-05-11T00:47:01.497Z,16.61
2023-05-11T00:49:28.055Z,16.65
2023-05-11T00:51:54.867Z,16.67
2023-05-11T00:54:21.506Z,16.67
2023-05-11T00:56:48.005Z,16.66
2023-05-11T00:59:14.511Z,16.71
2023-05-11T01:01:41.275Z,16.71
2023-05-11T01:04:08.368Z,16.67
2023-05-11T01:06:52.798Z,16.66
2023-05-11T01:09:27.276Z,16.61
2023-05-11T01:12:15.320Z,16.43
2023-05-11T01:14:54.034Z,16.46
2023-05-11T01:17:47.560Z,16.50
2023-05-11T01:20:23.705Z,16.47
2023-05-11T01:23:10.482Z,16.27
2023-05-11T01:26:22.834Z,16.23
2023-05-11T01:29:07.415Z,16.21
2023-05-11T01:31:38.675Z,16.26
2023-05-11T01:34:13.251Z,16.12
2023-05-11T01:36:53.119Z,16.17
2023-05-11T01:39:25.236Z,16.16
2023-05-11T01:41:55.426Z,16.17
2023-05-11T01:44:25.486Z,16.22
2023-05-11T01:46:53.157Z,16.21
2023-05-11T01:49:21.787Z,16.24
2023-05-11T01:51:52.137Z,16.18
2023-05-11T01:54:25.340Z,16.36
2023-05-11T01:56:54.211Z,16.27
2023-05-11T01:59:24.390Z,16.24
2023-05-11T02:01:51.384Z,16.15
2023-05-11T02:04:21.120Z,15.95
2023-05-11T02:06:50.941Z,15.92
2023-05-11T02:09:19.949Z,16.00
2023-05-11T02:11:49.054Z,16.09
2023-05-11T02:14:18.792Z,15.99
2023-05-11T02:16:49.756Z,16.17
2023-05-11T02:19:19.244Z,16.26
2023-05-11T02:21:46.674Z,16.28
2023-05-11T02:24:15.568Z,16.30
2023-05-11T02:26:42.680Z,16.36
2023-05-11T02:29:09.274Z,16.42
2023-05-11T02:31:46.220Z,16.32
2023-05-11T02:34:26.144Z,16.53
2023-05-11T02:37:09.741Z,16.43
2023-05-11T02:39:37.993Z,16.42
2023-05-11T02:42:21.773Z,16.39
2023-05-11T02:45:10.889Z,16.26
2023-05-11T02:47:51.563Z,16.24
2023-05-11T02:50:21.635Z,16.14
2023-05-11T02:52:51.108Z,16.26
2023-05-11T02:55:21.879Z,16.03
2023-05-11T02:57:48.770Z,16.07
2023-05-11T03:00:15.518Z,15.67
2023-05-11T03:02:42.141Z,15.92
2023-05-11T03:05:09.077Z,15.83
2023-05-11T03:07:36.186Z,15.96
2023-05-11T03:10:03.641Z,16.07
2023-05-11T03:12:31.164Z,16.08
2023-05-11T03:14:59.825Z,16.07
2023-05-11T03:17:29.007Z,15.95
2023-05-11T03:19:58.558Z,16.06
2023-05-11T03:22:27.244Z,16.12
2023-05-11T03:24:53.940Z,16.16
2023-05-11T03:27:22.022Z,16.06
2023-05-11T03:29:52.261Z,16.07
2023-05-11T03:32:18.969Z,16.04
2023-05-11T03:34:45.513Z,15.90
2023-05-11T03:37:13.405Z,16.00
2023-05-11T03:39:43.941Z,15.96
2023-05-11T03:42:13.755Z,15.97
2023-05-11T03:44:43.869Z,15.99
2023-05-11T03:47:13.286Z,15.97
2023-05-11T03:49:41.139Z,15.89
2023-05-11T03:52:08.701Z,15.82
2023-05-11T03:54:36.092Z,15.85
2023-05-11T03:57:02.773Z,15.75
2023-05-11T03:59:29.292Z,15.81
2023-05-11T04:01:56.029Z,15.78
2023-05-11T04:04:29.072Z,15.84
2023-05-11T04:06:56.054Z,15.83
2023-05-11T04:09:22.978Z,15.81
2023-05-11T04:11:49.905Z,15.67
2023-05-11T04:14:16.910Z,15.73
2023-05-11T04:16:44.226Z,15.61
2023-05-11T04:19:10.847Z,15.49
2023-05-11T04:21:37.464Z,15.51
2023-05-11T04:24:06.063Z,15.48
2023-05-11T04:26:32.628Z,15.09
2023-05-11T04:28:59.114Z,15.26
2023-05-11T04:31:25.596Z,15.22
2023-05-11T04:33:52.148Z,15.29
2023-05-11T04:36:18.673Z,15.21
2023-05-11T04:38:45.223Z,15.32
2023-05-11T04:41:11.709Z,15.03
2023-05-11T04:43:38.179Z,14.91
2023-05-11T04:46:04.736Z,14.99
2023-05-11T04:48:31.265Z,14.86
2023-05-11T04:50:57.990Z,14.95
2023-05-11T04:53:24.741Z,15.03
2023-05-11T04:55:51.211Z,15.02
2023-05-11T04:58:17.681Z,15.01
2023-05-11T05:00:44.191Z,15.06
2023-05-11T05:03:10.827Z,15.13
2023-05-11T05:05:37.359Z,15.32
2023-05-11T05:08:04.122Z,15.37
2023-05-11T05:10:30.683Z,15.55
2023-05-11T05:12:57.241Z,15.69
2023-05-11T05:15:23.843Z,15.80
2023-05-11T05:17:50.399Z,15.90
2023-05-11T05:20:17.286Z,15.96
2023-05-11T05:22:43.971Z,15.99
2023-05-11T05:25:10.513Z,16.08
2023-05-11T05:27:37.143Z,16.12
2023-05-11T05:30:04.072Z,16.13
2023-05-11T05:32:30.616Z,16.20
2023-05-11T05:34:57.157Z,16.32
2023-05-11T05:37:23.714Z,16.38
2023-05-11T05:39:51.504Z,16.49
2023-05-11T05:42:18.106Z,16.62
2023-05-11T05:44:44.602Z,16.58
2023-05-11T05:47:11.287Z,16.65
2023-05-11T05:49:37.740Z,16.75
2023-05-11T05:52:04.610Z,16.83
2023-05-11T05:54:36.185Z,16.77
2023-05-11T05:57:20.045Z,16.68
2023-05-11T05:59:46.577Z,16.76
2023-05-11T06:02:22.040Z,16.81
2023-05-11T06:04:56.701Z,16.79
2023-05-11T06:07:23.379Z,16.88
2023-05-11T06:09:50.014Z,16.90
2023-05-11T06:12:29.452Z,16.93
2023-05-11T06:14:56.435Z,16.89
2023-05-11T06:17:23.105Z,16.91
2023-05-11T06:19:50.335Z,17.02
2023-05-11T06:22:16.967Z,17.05
2023-05-11T06:24:43.528Z,17.07
2023-05-11T06:27:10.130Z,17.12
2023-05-11T06:29:36.793Z,16.99
2023-05-11T06:32:03.387Z,17.16
2023-05-11T06:34:29.897Z,17.26
2023-05-11T06:36:59.403Z,17.11
2023-05-11T06:39:26.328Z,17.14
2023-05-11T06:41:54.401Z,16.81
2023-05-11T06:44:21.715Z,17.08
2023-05-11T06:46:48.304Z,17.12
2023-05-11T06:49:14.992Z,17.19
2023-05-11T06:51:41.519Z,17.07
2023-05-11T06:54:08.077Z,17.14
2023-05-11T06:56:34.722Z,17.21
2023-05-11T06:59:01.417Z,17.01
2023-05-11T07:01:28.004Z,17.20
2023-05-11T07:03:55.104Z,17.27
2023-05-11T07:06:21.829Z,17.18
2023-05-11T07:08:48.450Z,17.22
2023-05-11T07:11:15.219Z,17.30
2023-05-11T07:13:41.731Z,17.23
2023-05-11T07:16:08.273Z,17.09
2023-05-11T07:18:34.994Z,17.27
2023-05-11T07:21:01.814Z,17.18
2023-05-11T07:23:28.350Z,17.28
2023-05-11T07:25:55.112Z,17.21
2023-05-11T07:28:21.629Z,17.23
2023-05-11T07:30:48.287Z,17.27
2023-05-11T07:33:15.273Z,17.22
2023-05-11T07:35:41.884Z,17.17
2023-05-11T07:38:08.547Z,17.32
2023-05-11T07:40:35.469Z,17.07
2023-05-11T07:43:02.022Z,17.16
2023-05-11T07:45:28.548Z,17.33
2023-05-11T07:47:55.160Z,17.37
2023-05-11T07:50:24.324Z,17.43
2023-05-11T07:52:51.578Z,17.40
2023-05-11T07:55:18.283Z,17.46
2023-05-11T07:57:45.002Z,17.59
2023-05-11T08:00:12.004Z,17.52
2023-05-11T08:02:38.864Z,17.53
2023-05-11T08:05:06.060Z,17.49
2023-05-11T08:07:32.715Z,17.63
2023-05-11T08:09:59.233Z,17.62
2023-05-11T08:12:25.846Z,17.75
2023-05-11T08:14:52.562Z,17.78
2023-05-11T08:17:19.282Z,17.78
2023-05-11T08:19:45.998Z,17.75
2023-05-11T08:22:12.860Z,17.90
2023-05-11T08:24:40.261Z,17.91
2023-05-11T08:27:07.040Z,17.88
2023-05-11T08:29:33.947Z,17.93
2023-05-11T08:32:00.816Z,17.99
2023-05-11T08:34:27.602Z,18.09
2023-05-11T08:36:54.533Z,17.97
2023-05-11T08:39:38.954Z,17.98
2023-05-11T08:42:10.158Z,18.13
2023-05-11T08:44:40.360Z,18.24
2023-05-11T08:47:22.042Z,18.24
2023-05-11T08:49:50.626Z,18.31
2023-05-11T08:52:18.625Z,18.12
2023-05-11T08:54:46.094Z,18.15
2023-05-11T08:57:14.072Z,18.31
2023-05-11T08:59:45.586Z,18.13
2023-05-11T09:02:19.509Z,18.25
2023-05-11T09:04:48.887Z,18.05
2023-05-11T09:07:17.110Z,18.18
2023-05-11T09:09:45.312Z,18.03
2023-05-11T09:12:12.280Z,17.66
2023-05-11T09:14:38.881Z,17.61
2023-05-11T09:17:05.731Z,17.63
2023-05-11T09:19:32.373Z,17.76
2023-05-11T09:21:59.662Z,17.76
2023-05-11T09:24:26.332Z,17.63
2023-05-11T09:29:51.947Z,17.76
2023-05-11T09:32:18.887Z,17.65
2023-05-11T09:34:45.607Z,17.79
2023-05-11T09:37:17.823Z,17.69
2023-05-11T09:40:17.660Z,17.67
2023-05-11T09:42:31.776Z,17.65
2023-05-11T09:44:58.263Z,17.82
2023-05-11T09:47:24.911Z,17.54
2023-05-11T09:49:51.416Z,17.89
2023-05-11T09:52:18.845Z,18.01
2023-05-11T09:54:51.283Z,18.24
2023-05-11T09:57:23.708Z,18.61
2023-05-11T09:59:50.371Z,18.40
2023-05-11T10:02:21.491Z,18.42
2023-05-11T10:04:52.401Z,18.28
2023-05-11T10:07:25.736Z,18.25
2023-05-11T10:10:01.882Z,18.25
2023-05-11T10:12:29.553Z,17.97
2023-05-11T10:15:02.526Z,17.94
2023-05-11T10:17:30.005Z,18.06
2023-05-11T10:19:57.752Z,18.05
2023-05-11T10:22:29.306Z,18.25
2023-05-11T10:24:59.969Z,18.13
2023-05-11T10:27:27.712Z,18.19
2023-05-11T10:29:54.353Z,18.34
2023-05-11T10:32:21.145Z,18.33
2023-05-11T10:34:48.697Z,18.41
2023-05-11T10:37:15.934Z,18.36
2023-05-11T10:39:46.619Z,18.36
2023-05-11T10:42:30.390Z,18.19
2023-05-11T10:45:18.603Z,17.98
2023-05-11T10:48:14.284Z,17.83
2023-05-11T10:51:02.671Z,17.41
2023-05-11T10:53:37.900Z,17.53
2023-05-11T10:56:34.784Z,17.54
2023-05-11T10:59:31.114Z,17.33
2023-05-11T11:01:58.041Z,17.56
2023-05-11T11:07:12.831Z,17.82
2023-05-11T11:09:57.753Z,17.76
2023-05-11T11:12:24.850Z,17.91
2023-05-11T11:15:00.585Z,18.00
2023-05-11T11:17:34.496Z,18.12
2023-05-11T11:20:03.490Z,18.11
2023-05-11T11:22:36.268Z,18.26
2023-05-11T11:25:03.727Z,18.29
2023-05-11T11:28:02.742Z,18.24
2023-05-11T11:30:29.734Z,18.52
2023-05-11T11:33:16.116Z,18.52
2023-05-11T11:35:42.938Z,18.28
2023-05-11T11:38:12.428Z,18.17
2023-05-11T11:40:50.628Z,18.14
2023-05-11T11:43:23.992Z,18.32
2023-05-11T11:45:57.022Z,18.43
2023-05-11T11:48:37.700Z,18.31
2023-05-11T11:51:11.696Z,18.12
2023-05-11T11:53:38.387Z,18.28
2023-05-11T11:56:28.533Z,18.26
2023-05-11T11:58:59.684Z,18.32
2023-05-11T12:01:28.914Z,18.42
2023-05-11T12:04:04.673Z,18.42
2023-05-11T12:06:39.595Z,17.93
2023-05-11T12:09:07.557Z,17.84
2023-05-11T12:11:34.832Z,17.75
2023-05-11T12:14:02.566Z,17.59
2023-05-11T12:16:29.439Z,17.59
2023-05-11T12:19:01.546Z,17.71
2023-05-11T12:21:30.714Z,16.84
2023-05-11T12:23:59.462Z,16.72
2023-05-11T12:26:28.348Z,16.88
2023-05-11T12:29:10.397Z,17.12
2023-05-11T12:31:42.106Z,17.28
2023-05-11T12:34:20.313Z,16.99
2023-05-11T12:36:48.443Z,17.21
2023-05-11T12:39:19.154Z,17.57
2023-05-11T12:41:47.825Z,17.27
2023-05-11T12:44:16.570Z,17.37
2023-05-11T12:46:46.035Z,17.43
2023-05-11T12:49:24.907Z,17.64
2023-05-11T12:52:05.756Z,17.95
2023-05-11T12:54:37.077Z,18.09
2023-05-11T12:57:05.334Z,18.15
2023-05-11T12:59:33.302Z,18.33
2023-05-11T13:02:12.990Z,18.11
2023-05-11T13:04:41.701Z,18.22
2023-05-11T13:07:09.375Z,17.40
2023-05-11T13:09:36.181Z,17.63
2023-05-11T13:12:17.390Z,18.27
2023-05-11T13:14:49.411Z,17.99
2023-05-11T13:17:33.289Z,17.90
2023-05-11T13:20:19.275Z,18.57
2023-05-11T13:22:47.526Z,18.45
2023-05-11T13:25:20.027Z,18.13
2023-05-11T13:27:46.979Z,18.36
2023-05-11T13:30:13.824Z,18.63
2023-05-11T13:32:40.390Z,19.70
2023-05-11T13:35:07.277Z,20.77
2023-05-11T13:37:33.814Z,21.21
2023-05-11T13:40:00.347Z,22.02
2023-05-11T13:42:26.906Z,22.62
2023-05-11T13:44:53.414Z,22.69
2023-05-11T13:47:19.949Z,22.55
2023-05-11T13:49:46.450Z,22.01
2023-05-11T13:52:13.021Z,21.83
2023-05-11T13:54:39.530Z,21.44
2023-05-11T13:57:06.409Z,20.70
2023-05-11T13:59:32.902Z,20.40
2023-05-11T14:01:59.505Z,20.38
2023-05-11T14:04:26.109Z,19.79
2023-05-11T14:06:53.131Z,19.79
2023-05-11T14:09:19.621Z,19.79
2023-05-11T14:11:46.217Z,19.60
2023-05-11T14:14:12.723Z,19.62
2023-05-11T14:16:39.201Z,19.17
2023-05-11T14:19:05.892Z,19.39
2023-05-11T14:21:32.563Z,19.27
2023-05-11T14:24:10.738Z,19.34
2023-05-11T14:26:38.384Z,19.31
2023-05-11T14:29:04.883Z,19.27
2023-05-11T14:31:31.787Z,19.59
2023-05-11T14:33:58.851Z,20.18
2023-05-11T14:36:25.600Z,20.29
2023-05-11T14:38:52.156Z,20.27
2023-05-11T14:41:18.706Z,20.32
2023-05-11T14:43:45.238Z,20.27
2023-05-11T14:46:11.834Z,20.22
2023-05-11T14:48:38.433Z,20.16
2023-05-11T14:51:04.963Z,20.22
2023-05-11T14:53:32.754Z,20.19
2023-05-11T14:55:59.810Z,20.17
2023-05-11T14:58:26.777Z,20.30
2023-05-11T15:00:53.319Z,20.18
2023-05-11T15:03:19.887Z,20.06
2023-05-11T15:05:46.766Z,20.14
2023-05-11T15:08:28.408Z,20.10
2023-05-11T15:10:55.902Z,20.18
2023-05-11T15:13:22.487Z,20.19
2023-05-11T15:15:49.027Z,20.22
2023-05-11T15:18:15.556Z,20.28
2023-05-11T15:20:42.985Z,20.27
2023-05-11T15:23:12.167Z,20.08
2023-05-11T15:25:38.624Z,20.14
2023-05-11T15:28:05.465Z,20.20
2023-05-11T15:30:32.716Z,20.16
2023-05-11T15:32:59.569Z,20.17
2023-05-11T15:35:26.105Z,20.23
2023-05-11T15:37:52.703Z,20.11
2023-05-11T15:40:19.322Z,20.28
2023-05-11T15:42:45.898Z,20.35
2023-05-11T15:45:12.461Z,20.33
2023-05-11T15:47:39.018Z,20.39
2023-05-11T15:50:06.293Z,20.38
2023-05-11T15:52:32.827Z,20.48
2023-05-11T15:54:59.309Z,20.39
2023-05-11T15:57:28.804Z,20.30
2023-05-11T15:59:55.352Z,20.35
2023-05-11T16:02:21.988Z,20.06
2023-05-11T16:04:48.517Z,19.93
2023-05-11T16:07:15.309Z,20.11
2023-05-11T16:09:41.790Z,20.16
2023-05-11T16:12:08.600Z,20.16
2023-05-11T16:14:35.191Z,20.27
2023-05-11T16:17:01.833Z,20.47
2023-05-11T16:19:28.414Z,20.57
2023-05-11T16:21:54.892Z,20.59
2023-05-11T16:24:21.426Z,20.65
2023-05-11T16:26:47.944Z,20.66
2023-05-11T16:29:14.433Z,20.74
2023-05-11T16:31:40.958Z,20.79
2023-05-11T16:34:07.482Z,20.82
2023-05-11T16:36:33.967Z,20.80
2023-05-11T16:39:00.488Z,20.32
2023-05-11T16:41:27.061Z,20.39
2023-05-11T16:43:53.592Z,20.11
2023-05-11T16:46:20.253Z,20.05
2023-05-11T16:48:46.816Z,20.11
2023-05-11T16:51:16.585Z,19.18
2023-05-11T16:53:43.081Z,18.88
2023-05-11T16:56:09.546Z,18.95
2023-05-11T16:58:36.103Z,18.95
2023-05-11T17:01:02.607Z,19.25
2023-05-11T17:03:29.133Z,18.94
2023-05-11T17:05:56.069Z,19.09
2023-05-11T17:08:22.584Z,19.31
2023-05-11T17:10:49.133Z,19.51
2023-05-11T17:13:17.106Z,19.43
2023-05-11T17:15:43.590Z,19.45
2023-05-11T17:18:10.208Z,19.49
2023-05-11T17:20:36.739Z,19.56
2023-05-11T17:23:03.299Z,19.62
2023-05-11T17:25:29.823Z,19.60
2023-05-11T17:27:56.452Z,19.77
2023-05-11T17:30:29.921Z,19.69
2023-05-11T17:33:03.415Z,19.92
2023-05-11T17:35:30.180Z,19.89
2023-05-11T17:37:56.834Z,19.65
2023-05-11T17:40:23.440Z,19.66
2023-05-11T17:42:50.001Z,19.65
2023-05-11T17:45:16.671Z,19.19
2023-05-11T17:47:43.321Z,19.32
2023-05-11T17:50:10.068Z,19.27
2023-05-11T17:52:36.597Z,19.11
2023-05-11T17:55:03.146Z,19.02
2023-05-11T17:57:29.642Z,18.96
2023-05-11T17:59:56.153Z,19.06
2023-05-11T18:02:22.876Z,18.92
2023-05-11T18:04:49.398Z,18.82
2023-05-11T18:07:15.888Z,18.86
2023-05-11T18:09:42.412Z,18.88
2023-05-11T18:12:09.498Z,18.91
2023-05-11T18:14:35.989Z,18.59
2023-05-11T18:17:02.574Z,18.74
2023-05-11T18:19:32.336Z,18.76
2023-05-11T18:21:59.069Z,18.76
2023-05-11T18:24:25.628Z,18.62
2023-05-11T18:26:52.278Z,18.58
2023-05-11T18:29:21.206Z,18.59
2023-05-11T18:31:48.135Z,18.61
2023-05-11T18:34:16.778Z,18.34
2023-05-11T18:36:45.352Z,18.42
2023-05-11T18:39:11.903Z,18.43
2023-05-11T18:41:38.404Z,18.45
2023-05-11T18:44:04.964Z,18.48
2023-05-11T18:46:31.540Z,17.87
2023-05-11T18:48:58.069Z,17.82
2023-05-11T18:51:24.632Z,17.84
2023-05-11T18:53:51.189Z,17.91
2023-05-11T18:56:18.102Z,17.89
2023-05-11T18:58:46.082Z,17.95
2023-05-11T19:01:12.697Z,17.99
2023-05-11T19:03:39.344Z,18.01
2023-05-11T19:06:05.991Z,18.13
2023-05-11T19:08:32.546Z,18.02
2023-05-11T19:11:04.671Z,17.77
2023-05-11T19:13:31.265Z,17.61
2023-05-11T19:15:57.920Z,17.50
2023-05-11T19:18:26.393Z,17.30
2023-05-11T19:20:52.992Z,17.42
2023-05-11T19:23:19.504Z,17.50
2023-05-11T19:25:46.111Z,17.36
2023-05-11T19:28:12.687Z,16.96
2023-05-11T19:30:39.180Z,16.70
2023-05-11T19:33:05.821Z,16.99
2023-05-11T19:35:32.392Z,16.66
2023-05-11T19:37:58.872Z,16.44
2023-05-11T19:42:54.794Z,14.94
2023-05-11T19:45:21.358Z,14.95
2023-05-11T19:47:47.902Z,15.02
2023-05-11T19:50:14.462Z,14.89
2023-05-11T19:52:41.017Z,14.73
2023-05-11T19:55:07.923Z,15.34
2023-05-11T19:57:34.626Z,15.05
2023-05-11T20:00:01.128Z,14.70
2023-05-11T20:02:27.698Z,14.55
2023-05-11T20:04:54.284Z,14.48
2023-05-11T20:07:20.875Z,14.41
2023-05-11T20:09:47.488Z,14.19
2023-05-11T20:12:13.975Z,13.99
2023-05-11T20:14:40.466Z,13.93
2023-05-11T20:17:07.237Z,14.04
2023-05-11T20:19:33.729Z,14.12
2023-05-11T20:22:00.811Z,13.74
2023-05-11T20:24:27.444Z,13.89
2023-05-11T20:26:54.548Z,13.92
2023-05-11T20:29:21.341Z,13.70
2023-05-11T20:31:48.264Z,14.14
2023-05-11T20:34:15.135Z,14.17
2023-05-11T20:36:41.631Z,13.93
2023-05-11T20:39:08.186Z,13.71
2023-05-11T20:41:34.900Z,13.73
2023-05-11T20:44:01.510Z,13.69
2023-05-11T20:46:27.990Z,13.89
2023-05-11T20:48:54.480Z,13.47
2023-05-11T20:51:20.949Z,14.00
2023-05-11T20:53:47.426Z,14.10
2023-05-11T20:56:14.160Z,13.99
2023-05-11T20:58:40.636Z,13.71
2023-05-11T21:01:07.202Z,13.74
2023-05-11T21:03:33.746Z,14.01
2023-05-11T21:06:00.400Z,14.19
2023-05-11T21:08:26.953Z,14.45
2023-05-11T21:10:53.460Z,14.62
2023-05-11T21:13:20.053Z,14.92
2023-05-11T21:15:46.507Z,15.29
2023-05-11T21:18:15.416Z,15.38
2023-05-11T21:20:41.912Z,15.65
2023-05-11T21:23:08.637Z,15.93
2023-05-11T21:25:37.575Z,16.14
2023-05-11T21:28:04.108Z,16.29
2023-05-11T21:30:30.597Z,16.22
2023-05-11T21:32:57.140Z,16.40
2023-05-11T21:35:23.945Z,16.30
2023-05-11T21:37:50.472Z,16.32
2023-05-11T21:40:17.879Z,16.14
2023-05-11T21:42:44.904Z,16.20
2023-05-11T21:45:11.431Z,16.59
2023-05-11T21:47:37.942Z,16.84
2023-05-11T21:50:05.789Z,16.92
2023-05-11T21:52:32.287Z,16.88
2023-05-11T21:54:59.305Z,17.02
2023-05-11T21:57:25.818Z,17.15
2023-05-11T21:59:52.320Z,16.88
2023-05-11T22:02:18.777Z,16.89
2023-05-11T22:04:45.290Z,16.93
2023-05-11T22:07:14.517Z,16.96
2023-05-11T22:09:41.061Z,16.65
2023-05-11T22:12:08.063Z,16.82
2023-05-11T22:14:34.622Z,16.81
2023-05-11T22:17:01.056Z,16.90
2023-05-11T22:19:27.512Z,16.83
2023-05-11T22:21:54.024Z,16.66
2023-05-11T22:24:20.517Z,16.75
2023-05-11T22:26:46.988Z,16.79
2023-05-11T22:29:13.494Z,16.74
2023-05-11T22:31:40.009Z,16.82
2023-05-11T22:34:06.566Z,16.78
2023-05-11T22:36:33.055Z,16.66
2023-05-11T22:38:59.629Z,16.51
2023-05-11T22:41:26.127Z,16.67
2023-05-11T22:43:52.605Z,16.57
2023-05-11T22:46:19.161Z,16.42
2023-05-11T22:48:48.611Z,16.18
2023-05-11T22:51:15.440Z,16.38
2023-05-11T22:53:41.898Z,16.08
2023-05-11T22:56:08.433Z,15.86
2023-05-11T22:58:35.087Z,15.78
2023-05-11T23:01:01.594Z,15.47
2023-05-11T23:03:28.176Z,15.56
2023-05-11T23:05:54.937Z,15.78
2023-05-11T23:08:21.755Z,15.84
2023-05-11T23:10:51.569Z,16.00
2023-05-11T23:13:18.290Z,16.07
2023-05-11T23:15:45.419Z,16.13
2023-05-11T23:18:12.269Z,16.31
2023-05-11T23:20:38.997Z,16.44
2023-05-11T23:23:05.615Z,16.13
2023-05-11T23:25:32.140Z,16.41
2023-05-11T23:27:58.707Z,16.40
2023-05-11T23:30:25.326Z,16.35
2023-05-11T23:32:51.983Z,16.54
2023-05-11T23:35:18.561Z,16.42
2023-05-11T23:37:45.104Z,16.47
2023-05-11T23:40:11.787Z,16.56
2023-05-11T23:42:38.369Z,16.62
2023-05-11T23:45:05.433Z,16.62
2023-05-11T23:47:32.116Z,16.55
2023-05-11T23:49:59.361Z,16.59
2023-05-11T23:52:25.958Z,16.63
2023-05-11T23:54:52.551Z,16.55
2023-05-11T23:57:19.179Z,16.54
2023-05-11T23:59:45.744Z,16.58
